Princeton/Rocky Hill (39N)
Princeton, NJ
Field Elevation: 128
Lat: 40°23.94N  Long: 74°39.54W
CTAF/Unicom Freq: 122.7250
   
     For Weather-by-Phone, call (609)-924-3901
Weather Advisories
7/24/2014 00:14 Z
Altimeter 29.82" Hg
Wind 290° @ 13 KT
Gusts --
Visibility 10 SM
Ceiling SCT041 BKN150
Temperature 29° C (84° F)
Dewpoint 22° C (72° F)
Relative Humidity 69%
Density Altitude 1,900 feet
Condensation Altitude 3,500 feet
Heat Index 33° C (91° F)
  Wind and Runways
Indicated Runway = 28
History
 
 
More Info
All DigiWx sites map
 
NOAA Forecast
 
Airport IQ 5010
(OCNJ) Ocean City
(PN44) Upper Gwynedd Heliport
 
about DigiWx
 
FAA Disclaimer: The data displayed is for advisory purposes only and is not to be used for flight planning or operations. For official data, please call (609)-924-3901 to hear the current automated AWOS voice message.
  METAR 39N 240014Z AUTO 29013KT 10SM SCT041 BKN150 29/22 A2982